SARL/AOL METAR and TAF weather

Enter ICAO airport designator
Station Type Date Time Source
SARL METAR 2021/10/20 07:00 UTC NOAA

SARL 200700Z 09001KT CAVOK 14/12 Q1018


Station Type Date Time Source
SARL Decoded METAR 2021/10/20 07:00 UTC NOAA

Paso De Los Libres Aerodrome, Argentina (SARL) 29-41S 057-09W 70M
Oct 20, 2021 - 03:00 AM EDT / 2021.10.20 0700 UTC
Wind: from the E (090 degrees) at 1 MPH (1 KT):0
Visibility: greater than 7 mile(s):0
Temperature: 57 F (14 C)
Dew Point: 53 F (12 C)
Relative Humidity: 87%
Pressure (altimeter): 30.06 in. Hg (1018 hPa)
ob: SARL 200700Z 09001KT CAVOK 14/12 Q1018
cycle: 7

Station Type Date Time Source
SARL TAF UTC NOAA

Error!

Example: see airport list